sensor_id;sensor_type;location;lat;lon;timestamp;temperature;humidity
32660;DHT22;19064;47.912;12.308;2022-07-23T00:00:10;21.90;99.90
32660;DHT22;19064;47.912;12.308;2022-07-23T00:02:36;21.70;99.90
32660;DHT22;19064;47.912;12.308;2022-07-23T00:05:04;21.50;99.90
32660;DHT22;19064;47.912;12.308;2022-07-23T00:07:32;21.50;99.90
32660;DHT22;19064;47.912;12.308;2022-07-23T00:09:59;21.50;99.90
32660;DHT22;19064;47.912;12.308;2022-07-23T00:12:26;21.40;99.90
32660;DHT22;19064;47.912;12.308;2022-07-23T00:14:55;21.40;99.90
32660;DHT22;19064;47.912;12.308;2022-07-23T00:17:23;21.30;99.90
32660;DHT22;19064;47.912;12.308;2022-07-23T00:19:49;21.40;99.90
32660;DHT22;19064;47.912;12.308;2022-07-23T00:22:16;21.30;99.90
32660;DHT22;19064;47.912;12.308;2022-07-23T00:24:44;21.30;99.90
32660;DHT22;19064;47.912;12.308;2022-07-23T00:27:11;21.30;99.90
32660;DHT22;19064;47.912;12.308;2022-07-23T00:29:38;21.20;99.90
32660;DHT22;19064;47.912;12.308;2022-07-23T00:32:05;21.10;99.90
32660;DHT22;19064;47.912;12.308;2022-07-23T00:34:32;21.20;99.90
32660;DHT22;19064;47.912;12.308;2022-07-23T00:36:59;21.30;99.90
32660;DHT22;19064;47.912;12.308;2022-07-23T00:39:26;21.30;99.90
32660;DHT22;19064;47.912;12.308;2022-07-23T00:41:54;21.40;99.90
32660;DHT22;19064;47.912;12.308;2022-07-23T00:44:22;21.30;99.90
32660;DHT22;19064;47.912;12.308;2022-07-23T00:46:50;21.30;99.90
32660;DHT22;19064;47.912;12.308;2022-07-23T00:49:19;21.30;99.90
32660;DHT22;19064;47.912;12.308;2022-07-23T00:51:47;21.20;99.90
32660;DHT22;19064;47.912;12.308;2022-07-23T00:54:14;21.20;99.90
32660;DHT22;19064;47.912;12.308;2022-07-23T00:56:43;21.10;99.90
32660;DHT22;19064;47.912;12.308;2022-07-23T00:59:12;21.10;99.90
32660;DHT22;19064;47.912;12.308;2022-07-23T01:01:39;21.30;99.90
32660;DHT22;19064;47.912;12.308;2022-07-23T01:04:06;21.40;99.90
32660;DHT22;19064;47.912;12.308;2022-07-23T01:06:35;21.30;99.90
32660;DHT22;19064;47.912;12.308;2022-07-23T01:09:03;21.30;99.90
32660;DHT22;19064;47.912;12.308;2022-07-23T01:11:31;21.20;99.90
32660;DHT22;19064;47.912;12.308;2022-07-23T01:13:59;21.20;99.90
32660;DHT22;19064;47.912;12.308;2022-07-23T01:16:35;21.10;99.90
32660;DHT22;19064;47.912;12.308;2022-07-23T01:19:02;21.00;99.90
32660;DHT22;19064;47.912;12.308;2022-07-23T01:21:33;20.80;99.90
32660;DHT22;19064;47.912;12.308;2022-07-23T01:24:02;20.70;99.90
32660;DHT22;19064;47.912;12.308;2022-07-23T01:26:29;20.70;99.90
32660;DHT22;19064;47.912;12.308;2022-07-23T01:28:56;21.00;99.90
32660;DHT22;19064;47.912;12.308;2022-07-23T01:31:23;21.00;99.90
32660;DHT22;19064;47.912;12.308;2022-07-23T01:33:49;21.00;99.90
32660;DHT22;19064;47.912;12.308;2022-07-23T01:36:16;20.90;99.90
32660;DHT22;19064;47.912;12.308;2022-07-23T01:38:43;20.90;99.90
32660;DHT22;19064;47.912;12.308;2022-07-23T01:41:11;20.90;99.90
32660;DHT22;19064;47.912;12.308;2022-07-23T01:43:38;20.90;99.90
32660;DHT22;19064;47.912;12.308;2022-07-23T01:46:05;21.00;99.90
32660;DHT22;19064;47.912;12.308;2022-07-23T01:48:32;21.10;99.90
32660;DHT22;19064;47.912;12.308;2022-07-23T01:50:59;21.10;99.90
32660;DHT22;19064;47.912;12.308;2022-07-23T01:53:25;21.40;99.90
32660;DHT22;19064;47.912;12.308;2022-07-23T01:55:52;21.60;99.90
32660;DHT22;19064;47.912;12.308;2022-07-23T01:58:20;21.70;99.90
32660;DHT22;19064;47.912;12.308;2022-07-23T02:00:47;21.70;99.90
32660;DHT22;19064;47.912;12.308;2022-07-23T02:03:14;21.80;99.90
32660;DHT22;19064;47.912;12.308;2022-07-23T02:05:41;21.80;99.90
32660;DHT22;19064;47.912;12.308;2022-07-23T02:08:08;21.80;99.90
32660;DHT22;19064;47.912;12.308;2022-07-23T02:10:34;21.80;99.90
32660;DHT22;19064;47.912;12.308;2022-07-23T02:13:01;21.70;99.90
32660;DHT22;19064;47.912;12.308;2022-07-23T02:15:30;21.70;99.90
32660;DHT22;19064;47.912;12.308;2022-07-23T02:17:56;21.80;99.90
32660;DHT22;19064;47.912;12.308;2022-07-23T02:20:23;21.80;99.90
32660;DHT22;19064;47.912;12.308;2022-07-23T02:22:51;21.80;99.90
32660;DHT22;19064;47.912;12.308;2022-07-23T02:25:18;21.70;99.90
32660;DHT22;19064;47.912;12.308;2022-07-23T02:27:44;21.70;99.90
32660;DHT22;19064;47.912;12.308;2022-07-23T02:30:12;21.80;99.90
32660;DHT22;19064;47.912;12.308;2022-07-23T02:32:40;21.80;99.90
32660;DHT22;19064;47.912;12.308;2022-07-23T02:35:07;21.80;99.90
32660;DHT22;19064;47.912;12.308;2022-07-23T02:37:34;21.80;99.90
32660;DHT22;19064;47.912;12.308;2022-07-23T02:40:01;21.80;99.90
32660;DHT22;19064;47.912;12.308;2022-07-23T02:42:27;21.60;99.90
32660;DHT22;19064;47.912;12.308;2022-07-23T02:44:54;21.70;99.90
32660;DHT22;19064;47.912;12.308;2022-07-23T02:47:21;21.70;99.90
32660;DHT22;19064;47.912;12.308;2022-07-23T02:49:49;21.70;99.90
32660;DHT22;19064;47.912;12.308;2022-07-23T02:52:16;21.60;99.90
32660;DHT22;19064;47.912;12.308;2022-07-23T02:54:43;21.70;99.90
32660;DHT22;19064;47.912;12.308;2022-07-23T02:57:10;21.60;99.90
32660;DHT22;19064;47.912;12.308;2022-07-23T02:59:36;21.50;99.90
32660;DHT22;19064;47.912;12.308;2022-07-23T03:02:03;21.30;99.90
32660;DHT22;19064;47.912;12.308;2022-07-23T03:04:30;21.50;99.90
32660;DHT22;19064;47.912;12.308;2022-07-23T03:06:58;21.50;99.90
32660;DHT22;19064;47.912;12.308;2022-07-23T03:09:25;21.50;99.90
32660;DHT22;19064;47.912;12.308;2022-07-23T03:11:52;21.50;99.90
32660;DHT22;19064;47.912;12.308;2022-07-23T03:14:18;21.50;99.90
32660;DHT22;19064;47.912;12.308;2022-07-23T03:16:45;21.60;99.90
32660;DHT22;19064;47.912;12.308;2022-07-23T03:19:13;21.50;99.90
32660;DHT22;19064;47.912;12.308;2022-07-23T03:21:41;21.60;99.90
32660;DHT22;19064;47.912;12.308;2022-07-23T03:24:11;21.60;99.90
32660;DHT22;19064;47.912;12.308;2022-07-23T03:26:39;21.60;99.90
32660;DHT22;19064;47.912;12.308;2022-07-23T03:29:06;21.60;99.90
32660;DHT22;19064;47.912;12.308;2022-07-23T03:31:34;21.60;99.90
32660;DHT22;19064;47.912;12.308;2022-07-23T03:34:03;21.60;99.90
32660;DHT22;19064;47.912;12.308;2022-07-23T03:36:31;21.50;99.90
32660;DHT22;19064;47.912;12.308;2022-07-23T03:38:57;21.50;99.90
32660;DHT22;19064;47.912;12.308;2022-07-23T03:41:27;21.50;99.90
32660;DHT22;19064;47.912;12.308;2022-07-23T03:43:54;21.40;99.90
32660;DHT22;19064;47.912;12.308;2022-07-23T03:46:22;21.50;99.90
32660;DHT22;19064;47.912;12.308;2022-07-23T03:48:50;21.30;99.90
32660;DHT22;19064;47.912;12.308;2022-07-23T03:51:18;21.30;99.90
32660;DHT22;19064;47.912;12.308;2022-07-23T03:53:48;21.50;99.90
32660;DHT22;19064;47.912;12.308;2022-07-23T03:56:16;21.50;99.90
32660;DHT22;19064;47.912;12.308;2022-07-23T03:58:44;21.60;99.90
32660;DHT22;19064;47.912;12.308;2022-07-23T04:01:11;21.70;99.90
32660;DHT22;19064;47.912;12.308;2022-07-23T04:03:40;21.70;99.90
32660;DHT22;19064;47.912;12.308;2022-07-23T04:06:08;21.70;99.90
32660;DHT22;19064;47.912;12.308;2022-07-23T04:08:34;21.60;99.90
32660;DHT22;19064;47.912;12.308;2022-07-23T04:11:02;21.60;99.90
32660;DHT22;19064;47.912;12.308;2022-07-23T04:13:30;21.50;99.90
32660;DHT22;19064;47.912;12.308;2022-07-23T04:15:59;21.20;99.90
32660;DHT22;19064;47.912;12.308;2022-07-23T04:18:26;20.90;99.90
32660;DHT22;19064;47.912;12.308;2022-07-23T04:20:54;20.80;99.90
32660;DHT22;19064;47.912;12.308;2022-07-23T04:23:21;20.80;99.90
32660;DHT22;19064;47.912;12.308;2022-07-23T04:25:48;20.70;99.90
32660;DHT22;19064;47.912;12.308;2022-07-23T04:28:15;20.60;99.90
32660;DHT22;19064;47.912;12.308;2022-07-23T04:30:42;20.50;99.90
32660;DHT22;19064;47.912;12.308;2022-07-23T04:33:10;20.40;99.90
32660;DHT22;19064;47.912;12.308;2022-07-23T04:35:37;20.40;99.90
32660;DHT22;19064;47.912;12.308;2022-07-23T04:38:04;20.30;99.90
32660;DHT22;19064;47.912;12.308;2022-07-23T04:40:30;20.30;99.90
32660;DHT22;19064;47.912;12.308;2022-07-23T04:42:57;20.30;99.90
32660;DHT22;19064;47.912;12.308;2022-07-23T04:45:24;20.30;99.90
32660;DHT22;19064;47.912;12.308;2022-07-23T04:47:51;20.30;99.90
32660;DHT22;19064;47.912;12.308;2022-07-23T04:50:19;20.30;99.90
32660;DHT22;19064;47.912;12.308;2022-07-23T04:52:47;20.40;99.90
32660;DHT22;19064;47.912;12.308;2022-07-23T04:55:15;20.50;99.90
32660;DHT22;19064;47.912;12.308;2022-07-23T04:57:42;20.50;99.90
32660;DHT22;19064;47.912;12.308;2022-07-23T05:00:10;20.60;99.90
32660;DHT22;19064;47.912;12.308;2022-07-23T05:02:36;20.60;99.90
32660;DHT22;19064;47.912;12.308;2022-07-23T05:05:04;20.50;99.90
32660;DHT22;19064;47.912;12.308;2022-07-23T05:07:32;20.40;99.90
32660;DHT22;19064;47.912;12.308;2022-07-23T05:09:59;20.40;99.90
32660;DHT22;19064;47.912;12.308;2022-07-23T05:12:26;20.30;99.90
32660;DHT22;19064;47.912;12.308;2022-07-23T05:14:53;20.20;99.90
32660;DHT22;19064;47.912;12.308;2022-07-23T05:17:19;20.20;99.90
32660;DHT22;19064;47.912;12.308;2022-07-23T05:19:46;20.10;99.90
32660;DHT22;19064;47.912;12.308;2022-07-23T05:22:13;20.10;99.90
32660;DHT22;19064;47.912;12.308;2022-07-23T05:24:41;20.20;99.90
32660;DHT22;19064;47.912;12.308;2022-07-23T05:27:09;20.10;99.90
32660;DHT22;19064;47.912;12.308;2022-07-23T05:29:36;20.10;99.90
32660;DHT22;19064;47.912;12.308;2022-07-23T05:32:03;20.10;99.90
32660;DHT22;19064;47.912;12.308;2022-07-23T05:34:30;20.20;99.90
32660;DHT22;19064;47.912;12.308;2022-07-23T05:36:56;20.30;99.90
32660;DHT22;19064;47.912;12.308;2022-07-23T05:39:23;20.30;99.90
32660;DHT22;19064;47.912;12.308;2022-07-23T05:41:51;20.30;99.90
32660;DHT22;19064;47.912;12.308;2022-07-23T05:44:18;20.50;99.90
32660;DHT22;19064;47.912;12.308;2022-07-23T05:46:46;20.60;99.90
32660;DHT22;19064;47.912;12.308;2022-07-23T05:49:13;20.60;99.90
32660;DHT22;19064;47.912;12.308;2022-07-23T05:51:41;20.70;99.90
32660;DHT22;19064;47.912;12.308;2022-07-23T05:54:09;20.70;99.90
32660;DHT22;19064;47.912;12.308;2022-07-23T05:56:37;20.70;99.90
32660;DHT22;19064;47.912;12.308;2022-07-23T05:59:06;20.70;99.90
32660;DHT22;19064;47.912;12.308;2022-07-23T06:01:35;20.80;99.90
32660;DHT22;19064;47.912;12.308;2022-07-23T06:04:03;20.90;99.90
32660;DHT22;19064;47.912;12.308;2022-07-23T06:06:34;21.10;99.90
32660;DHT22;19064;47.912;12.308;2022-07-23T06:09:02;21.00;99.90
32660;DHT22;19064;47.912;12.308;2022-07-23T06:11:30;21.20;99.90
32660;DHT22;19064;47.912;12.308;2022-07-23T06:13:59;21.30;99.90
32660;DHT22;19064;47.912;12.308;2022-07-23T06:16:28;21.50;99.90
32660;DHT22;19064;47.912;12.308;2022-07-23T06:18:56;21.50;99.90
32660;DHT22;19064;47.912;12.308;2022-07-23T06:21:24;21.60;99.90
32660;DHT22;19064;47.912;12.308;2022-07-23T06:23:56;21.60;99.90
32660;DHT22;19064;47.912;12.308;2022-07-23T06:26:24;21.60;99.90
32660;DHT22;19064;47.912;12.308;2022-07-23T06:28:52;21.60;99.90
32660;DHT22;19064;47.912;12.308;2022-07-23T06:31:20;21.60;99.90
32660;DHT22;19064;47.912;12.308;2022-07-23T06:33:49;21.50;99.90
32660;DHT22;19064;47.912;12.308;2022-07-23T06:36:17;21.40;99.90
32660;DHT22;19064;47.912;12.308;2022-07-23T06:38:46;21.40;99.90
32660;DHT22;19064;47.912;12.308;2022-07-23T06:41:13;21.40;99.90
32660;DHT22;19064;47.912;12.308;2022-07-23T06:43:44;21.50;99.90
32660;DHT22;19064;47.912;12.308;2022-07-23T06:46:14;21.60;99.90
32660;DHT22;19064;47.912;12.308;2022-07-23T06:48:45;21.50;99.90
32660;DHT22;19064;47.912;12.308;2022-07-23T06:51:17;21.70;99.90
32660;DHT22;19064;47.912;12.308;2022-07-23T06:53:45;21.70;99.90
32660;DHT22;19064;47.912;12.308;2022-07-23T06:56:13;21.70;99.90
32660;DHT22;19064;47.912;12.308;2022-07-23T06:58:41;21.70;99.90
32660;DHT22;19064;47.912;12.308;2022-07-23T07:01:10;21.70;99.90
32660;DHT22;19064;47.912;12.308;2022-07-23T07:03:38;21.80;99.90
32660;DHT22;19064;47.912;12.308;2022-07-23T07:06:06;21.80;99.90
32660;DHT22;19064;47.912;12.308;2022-07-23T07:08:35;21.80;99.90
32660;DHT22;19064;47.912;12.308;2022-07-23T07:11:05;21.70;99.90
32660;DHT22;19064;47.912;12.308;2022-07-23T07:13:31;21.70;99.90
32660;DHT22;19064;47.912;12.308;2022-07-23T07:15:58;21.60;99.90
32660;DHT22;19064;47.912;12.308;2022-07-23T07:18:27;21.70;99.90
32660;DHT22;19064;47.912;12.308;2022-07-23T07:20:55;21.70;99.90
32660;DHT22;19064;47.912;12.308;2022-07-23T07:23:22;21.70;99.90
32660;DHT22;19064;47.912;12.308;2022-07-23T07:25:52;21.80;99.90
32660;DHT22;19064;47.912;12.308;2022-07-23T07:28:20;21.80;99.90
32660;DHT22;19064;47.912;12.308;2022-07-23T07:30:48;21.80;99.90
32660;DHT22;19064;47.912;12.308;2022-07-23T07:33:15;22.00;99.90
32660;DHT22;19064;47.912;12.308;2022-07-23T07:35:43;22.10;99.90
32660;DHT22;19064;47.912;12.308;2022-07-23T07:38:11;22.10;99.90
32660;DHT22;19064;47.912;12.308;2022-07-23T07:40:40;22.20;99.90
32660;DHT22;19064;47.912;12.308;2022-07-23T07:43:09;22.10;99.90
32660;DHT22;19064;47.912;12.308;2022-07-23T07:45:37;22.10;99.90
32660;DHT22;19064;47.912;12.308;2022-07-23T07:48:06;22.00;99.90
32660;DHT22;19064;47.912;12.308;2022-07-23T07:50:34;22.00;99.90
32660;DHT22;19064;47.912;12.308;2022-07-23T07:53:05;22.10;99.90
32660;DHT22;19064;47.912;12.308;2022-07-23T07:55:33;22.10;99.90
32660;DHT22;19064;47.912;12.308;2022-07-23T07:58:01;22.10;99.90
32660;DHT22;19064;47.912;12.308;2022-07-23T08:00:29;22.10;99.90
32660;DHT22;19064;47.912;12.308;2022-07-23T08:02:58;22.10;99.90
32660;DHT22;19064;47.912;12.308;2022-07-23T08:05:28;22.10;99.90
32660;DHT22;19064;47.912;12.308;2022-07-23T08:07:57;22.10;99.90
32660;DHT22;19064;47.912;12.308;2022-07-23T08:10:27;22.10;99.90
32660;DHT22;19064;47.912;12.308;2022-07-23T08:12:56;22.10;99.90
32660;DHT22;19064;47.912;12.308;2022-07-23T08:15:26;22.10;99.90
32660;DHT22;19064;47.912;12.308;2022-07-23T08:18:01;22.10;99.90
32660;DHT22;19064;47.912;12.308;2022-07-23T08:20:30;22.10;99.90
32660;DHT22;19064;47.912;12.308;2022-07-23T08:23:00;22.30;99.90
32660;DHT22;19064;47.912;12.308;2022-07-23T08:25:30;22.20;99.90
32660;DHT22;19064;47.912;12.308;2022-07-23T08:28:00;22.20;99.90
32660;DHT22;19064;47.912;12.308;2022-07-23T08:30:29;22.30;99.90
32660;DHT22;19064;47.912;12.308;2022-07-23T08:33:00;22.20;99.90
32660;DHT22;19064;47.912;12.308;2022-07-23T08:35:29;22.30;99.90
32660;DHT22;19064;47.912;12.308;2022-07-23T08:38:00;22.30;99.90
32660;DHT22;19064;47.912;12.308;2022-07-23T08:40:30;22.30;99.90
32660;DHT22;19064;47.912;12.308;2022-07-23T08:42:58;22.30;99.90
32660;DHT22;19064;47.912;12.308;2022-07-23T08:45:26;22.40;99.90
32660;DHT22;19064;47.912;12.308;2022-07-23T08:47:58;22.40;99.90
32660;DHT22;19064;47.912;12.308;2022-07-23T08:50:26;22.40;99.90
32660;DHT22;19064;47.912;12.308;2022-07-23T08:52:54;22.40;99.90
32660;DHT22;19064;47.912;12.308;2022-07-23T08:55:23;22.40;99.90
32660;DHT22;19064;47.912;12.308;2022-07-23T08:57:52;22.60;99.90
32660;DHT22;19064;47.912;12.308;2022-07-23T09:00:20;22.70;99.90
32660;DHT22;19064;47.912;12.308;2022-07-23T09:02:48;22.80;99.90
32660;DHT22;19064;47.912;12.308;2022-07-23T09:05:16;22.70;99.90
32660;DHT22;19064;47.912;12.308;2022-07-23T09:08:07;22.70;99.90
32660;DHT22;19064;47.912;12.308;2022-07-23T09:10:55;22.80;99.90
32660;DHT22;19064;47.912;12.308;2022-07-23T09:13:27;23.10;99.90
32660;DHT22;19064;47.912;12.308;2022-07-23T09:15:56;23.10;99.90
32660;DHT22;19064;47.912;12.308;2022-07-23T09:18:33;23.30;99.90
32660;DHT22;19064;47.912;12.308;2022-07-23T09:21:14;23.30;99.90
32660;DHT22;19064;47.912;12.308;2022-07-23T09:23:43;23.40;99.90
32660;DHT22;19064;47.912;12.308;2022-07-23T09:26:22;23.30;99.90
32660;DHT22;19064;47.912;12.308;2022-07-23T09:28:53;23.50;99.90
32660;DHT22;19064;47.912;12.308;2022-07-23T09:31:23;23.70;99.90
32660;DHT22;19064;47.912;12.308;2022-07-23T09:33:51;23.80;99.90
32660;DHT22;19064;47.912;12.308;2022-07-23T09:36:35;23.80;99.90
32660;DHT22;19064;47.912;12.308;2022-07-23T09:39:02;23.60;99.90
32660;DHT22;19064;47.912;12.308;2022-07-23T09:41:35;23.50;99.90
32660;DHT22;19064;47.912;12.308;2022-07-23T09:44:07;23.60;99.90
32660;DHT22;19064;47.912;12.308;2022-07-23T09:46:36;23.70;99.90
32660;DHT22;19064;47.912;12.308;2022-07-23T09:49:17;23.80;99.90
32660;DHT22;19064;47.912;12.308;2022-07-23T09:51:52;23.90;99.90
32660;DHT22;19064;47.912;12.308;2022-07-23T09:54:28;24.00;99.90
32660;DHT22;19064;47.912;12.308;2022-07-23T09:56:59;24.00;99.90
32660;DHT22;19064;47.912;12.308;2022-07-23T09:59:29;24.10;99.90
32660;DHT22;19064;47.912;12.308;2022-07-23T10:01:58;24.10;99.90
32660;DHT22;19064;47.912;12.308;2022-07-23T10:04:28;24.00;99.90
32660;DHT22;19064;47.912;12.308;2022-07-23T10:07:00;24.00;99.90
32660;DHT22;19064;47.912;12.308;2022-07-23T10:09:33;24.10;99.90
32660;DHT22;19064;47.912;12.308;2022-07-23T10:12:03;24.10;99.90
32660;DHT22;19064;47.912;12.308;2022-07-23T10:14:53;24.00;99.90
32660;DHT22;19064;47.912;12.308;2022-07-23T10:17:23;24.00;99.90
32660;DHT22;19064;47.912;12.308;2022-07-23T10:19:51;24.00;99.90
32660;DHT22;19064;47.912;12.308;2022-07-23T10:22:22;23.90;99.90
32660;DHT22;19064;47.912;12.308;2022-07-23T10:25:04;24.00;99.90
32660;DHT22;19064;47.912;12.308;2022-07-23T10:28:04;24.10;99.90
32660;DHT22;19064;47.912;12.308;2022-07-23T10:31:02;24.20;99.90
32660;DHT22;19064;47.912;12.308;2022-07-23T10:33:41;24.30;99.90
32660;DHT22;19064;47.912;12.308;2022-07-23T10:36:20;24.30;99.90
32660;DHT22;19064;47.912;12.308;2022-07-23T10:38:58;24.30;99.90
32660;DHT22;19064;47.912;12.308;2022-07-23T10:41:33;24.40;99.90
32660;DHT22;19064;47.912;12.308;2022-07-23T10:44:13;24.50;99.90
32660;DHT22;19064;47.912;12.308;2022-07-23T10:46:57;24.50;99.90
32660;DHT22;19064;47.912;12.308;2022-07-23T10:49:42;24.50;99.90
32660;DHT22;19064;47.912;12.308;2022-07-23T10:52:20;24.40;99.90
32660;DHT22;19064;47.912;12.308;2022-07-23T10:54:53;24.30;99.90
32660;DHT22;19064;47.912;12.308;2022-07-23T10:57:22;24.30;99.90
32660;DHT22;19064;47.912;12.308;2022-07-23T11:00:15;24.30;99.90
32660;DHT22;19064;47.912;12.308;2022-07-23T11:02:43;24.40;99.90
32660;DHT22;19064;47.912;12.308;2022-07-23T11:05:13;24.30;99.90
32660;DHT22;19064;47.912;12.308;2022-07-23T11:08:16;24.30;99.90
32660;DHT22;19064;47.912;12.308;2022-07-23T11:10:50;24.40;99.90
32660;DHT22;19064;47.912;12.308;2022-07-23T11:13:46;24.40;99.90
32660;DHT22;19064;47.912;12.308;2022-07-23T11:16:19;24.40;99.90
32660;DHT22;19064;47.912;12.308;2022-07-23T11:19:06;24.50;99.90
32660;DHT22;19064;47.912;12.308;2022-07-23T11:21:52;24.60;99.90
32660;DHT22;19064;47.912;12.308;2022-07-23T11:24:24;24.60;99.90
32660;DHT22;19064;47.912;12.308;2022-07-23T11:27:10;24.60;99.90
32660;DHT22;19064;47.912;12.308;2022-07-23T11:29:54;24.50;99.90
32660;DHT22;19064;47.912;12.308;2022-07-23T11:32:36;24.80;99.90
32660;DHT22;19064;47.912;12.308;2022-07-23T11:35:24;24.90;99.90
32660;DHT22;19064;47.912;12.308;2022-07-23T11:37:54;25.00;99.90
32660;DHT22;19064;47.912;12.308;2022-07-23T11:40:30;25.00;99.90
32660;DHT22;19064;47.912;12.308;2022-07-23T11:43:01;25.00;99.90
32660;DHT22;19064;47.912;12.308;2022-07-23T11:45:34;24.90;99.90
32660;DHT22;19064;47.912;12.308;2022-07-23T11:48:09;24.90;99.90
32660;DHT22;19064;47.912;12.308;2022-07-23T11:50:38;25.00;99.90
32660;DHT22;19064;47.912;12.308;2022-07-23T11:53:09;25.10;99.90
32660;DHT22;19064;47.912;12.308;2022-07-23T11:55:45;25.10;99.90
32660;DHT22;19064;47.912;12.308;2022-07-23T11:58:14;25.10;99.90
32660;DHT22;19064;47.912;12.308;2022-07-23T12:00:42;25.20;99.90
32660;DHT22;19064;47.912;12.308;2022-07-23T12:03:10;25.20;99.90
32660;DHT22;19064;47.912;12.308;2022-07-23T12:05:38;25.40;99.90
32660;DHT22;19064;47.912;12.308;2022-07-23T12:08:10;25.20;99.90
32660;DHT22;19064;47.912;12.308;2022-07-23T12:10:39;25.40;99.90
32660;DHT22;19064;47.912;12.308;2022-07-23T12:13:09;25.50;99.90
32660;DHT22;19064;47.912;12.308;2022-07-23T12:15:42;25.50;99.90
32660;DHT22;19064;47.912;12.308;2022-07-23T12:18:12;25.60;99.90
32660;DHT22;19064;47.912;12.308;2022-07-23T12:20:43;25.60;99.90
32660;DHT22;19064;47.912;12.308;2022-07-23T12:23:13;25.60;99.90
32660;DHT22;19064;47.912;12.308;2022-07-23T12:25:43;25.20;99.90
32660;DHT22;19064;47.912;12.308;2022-07-23T12:28:13;25.20;99.90
32660;DHT22;19064;47.912;12.308;2022-07-23T12:30:43;25.10;99.90
32660;DHT22;19064;47.912;12.308;2022-07-23T12:33:12;25.20;99.90
32660;DHT22;19064;47.912;12.308;2022-07-23T12:35:41;25.40;99.90
32660;DHT22;19064;47.912;12.308;2022-07-23T12:38:10;25.20;99.90
32660;DHT22;19064;47.912;12.308;2022-07-23T12:40:43;25.30;99.90
32660;DHT22;19064;47.912;12.308;2022-07-23T12:43:11;25.80;99.90
32660;DHT22;19064;47.912;12.308;2022-07-23T12:45:45;26.30;99.90
32660;DHT22;19064;47.912;12.308;2022-07-23T12:48:23;26.60;99.90
32660;DHT22;19064;47.912;12.308;2022-07-23T12:50:53;26.80;99.90
32660;DHT22;19064;47.912;12.308;2022-07-23T12:53:24;26.70;99.90
32660;DHT22;19064;47.912;12.308;2022-07-23T12:55:59;26.50;99.90
32660;DHT22;19064;47.912;12.308;2022-07-23T12:58:40;26.70;99.90
32660;DHT22;19064;47.912;12.308;2022-07-23T13:01:10;26.70;99.90
32660;DHT22;19064;47.912;12.308;2022-07-23T13:03:56;26.70;99.90
32660;DHT22;19064;47.912;12.308;2022-07-23T13:06:25;26.80;99.90
32660;DHT22;19064;47.912;12.308;2022-07-23T13:08:54;26.70;99.90
32660;DHT22;19064;47.912;12.308;2022-07-23T13:11:22;26.80;99.90
32660;DHT22;19064;47.912;12.308;2022-07-23T13:13:50;26.70;99.90
32660;DHT22;19064;47.912;12.308;2022-07-23T13:16:19;26.70;99.90
32660;DHT22;19064;47.912;12.308;2022-07-23T13:18:48;26.80;99.90
32660;DHT22;19064;47.912;12.308;2022-07-23T13:21:16;26.80;99.90
32660;DHT22;19064;47.912;12.308;2022-07-23T13:23:44;26.60;99.90
32660;DHT22;19064;47.912;12.308;2022-07-23T13:26:12;26.40;99.90
32660;DHT22;19064;47.912;12.308;2022-07-23T13:28:39;26.40;99.90
32660;DHT22;19064;47.912;12.308;2022-07-23T13:31:07;26.50;99.90
32660;DHT22;19064;47.912;12.308;2022-07-23T13:33:37;26.40;99.90
32660;DHT22;19064;47.912;12.308;2022-07-23T13:36:05;26.30;99.90
32660;DHT22;19064;47.912;12.308;2022-07-23T13:38:36;26.00;99.90
32660;DHT22;19064;47.912;12.308;2022-07-23T13:41:05;26.10;99.90
32660;DHT22;19064;47.912;12.308;2022-07-23T13:43:33;26.10;99.90
32660;DHT22;19064;47.912;12.308;2022-07-23T13:46:00;25.90;99.90
32660;DHT22;19064;47.912;12.308;2022-07-23T13:48:30;25.80;99.90
32660;DHT22;19064;47.912;12.308;2022-07-23T13:51:00;25.70;99.90
32660;DHT22;19064;47.912;12.308;2022-07-23T13:53:28;25.70;99.90
32660;DHT22;19064;47.912;12.308;2022-07-23T13:55:56;25.60;99.90
32660;DHT22;19064;47.912;12.308;2022-07-23T13:58:24;25.60;99.90
32660;DHT22;19064;47.912;12.308;2022-07-23T14:00:54;25.40;99.90
32660;DHT22;19064;47.912;12.308;2022-07-23T14:03:21;25.20;99.90
32660;DHT22;19064;47.912;12.308;2022-07-23T14:05:51;25.10;99.90
32660;DHT22;19064;47.912;12.308;2022-07-23T14:08:21;25.00;99.90
32660;DHT22;19064;47.912;12.308;2022-07-23T14:10:49;24.90;99.90
32660;DHT22;19064;47.912;12.308;2022-07-23T14:13:17;24.80;99.90
32660;DHT22;19064;47.912;12.308;2022-07-23T14:15:44;24.50;99.90
32660;DHT22;19064;47.912;12.308;2022-07-23T14:18:12;24.50;99.90
32660;DHT22;19064;47.912;12.308;2022-07-23T14:20:40;24.40;99.90
32660;DHT22;19064;47.912;12.308;2022-07-23T14:23:08;24.40;99.90
32660;DHT22;19064;47.912;12.308;2022-07-23T14:25:39;24.30;99.90
32660;DHT22;19064;47.912;12.308;2022-07-23T14:28:11;24.30;99.90
32660;DHT22;19064;47.912;12.308;2022-07-23T14:30:38;24.20;99.90
32660;DHT22;19064;47.912;12.308;2022-07-23T14:33:09;24.20;99.90
32660;DHT22;19064;47.912;12.308;2022-07-23T14:35:38;24.10;99.90
32660;DHT22;19064;47.912;12.308;2022-07-23T14:38:06;24.10;99.90
32660;DHT22;19064;47.912;12.308;2022-07-23T14:40:34;24.10;99.90
32660;DHT22;19064;47.912;12.308;2022-07-23T14:43:02;23.80;99.90
32660;DHT22;19064;47.912;12.308;2022-07-23T14:45:29;23.70;99.90
32660;DHT22;19064;47.912;12.308;2022-07-23T14:47:56;23.60;99.90
32660;DHT22;19064;47.912;12.308;2022-07-23T14:50:23;23.60;99.90
32660;DHT22;19064;47.912;12.308;2022-07-23T14:52:50;23.50;99.90
32660;DHT22;19064;47.912;12.308;2022-07-23T14:55:17;23.50;99.90
32660;DHT22;19064;47.912;12.308;2022-07-23T14:57:46;23.40;99.90
32660;DHT22;19064;47.912;12.308;2022-07-23T15:00:24;23.40;99.90
32660;DHT22;19064;47.912;12.308;2022-07-23T15:02:51;23.40;99.90
32660;DHT22;19064;47.912;12.308;2022-07-23T15:05:20;23.60;99.90
32660;DHT22;19064;47.912;12.308;2022-07-23T15:07:47;23.60;99.90
32660;DHT22;19064;47.912;12.308;2022-07-23T15:10:14;23.60;99.90
32660;DHT22;19064;47.912;12.308;2022-07-23T15:12:42;23.70;99.90
32660;DHT22;19064;47.912;12.308;2022-07-23T15:15:10;23.80;99.90
32660;DHT22;19064;47.912;12.308;2022-07-23T15:17:45;23.80;99.90
32660;DHT22;19064;47.912;12.308;2022-07-23T15:20:15;23.80;99.90
32660;DHT22;19064;47.912;12.308;2022-07-23T15:22:50;23.80;99.90
32660;DHT22;19064;47.912;12.308;2022-07-23T15:25:21;23.80;99.90
32660;DHT22;19064;47.912;12.308;2022-07-23T15:27:52;23.80;99.90
32660;DHT22;19064;47.912;12.308;2022-07-23T15:30:20;23.70;99.90